sensor_id;sensor_type;location;lat;lon;timestamp;pressure;altitude;pressure_sealevel;temperature;humidity
6194;BME280;3130;41.564;23.280;2023-06-05T00:00:18;99220.28;;;17.11;89.99
6194;BME280;3130;41.564;23.280;2023-06-05T00:02:47;99249.84;;;17.09;90.61
6194;BME280;3130;41.564;23.280;2023-06-05T00:05:14;99242.44;;;17.04;91.27
6194;BME280;3130;41.564;23.280;2023-06-05T00:07:44;99272.44;;;17.07;91.76
6194;BME280;3130;41.564;23.280;2023-06-05T00:10:11;99272.09;;;17.11;91.71
6194;BME280;3130;41.564;23.280;2023-06-05T00:12:38;99217.13;;;16.76;92.28
6194;BME280;3130;41.564;23.280;2023-06-05T00:15:07;99265.22;;;17.21;92.28
6194;BME280;3130;41.564;23.280;2023-06-05T00:17:34;99263.66;;;17.29;91.75
6194;BME280;3130;41.564;23.280;2023-06-05T00:20:04;99208.13;;;17.12;91.03
6194;BME280;3130;41.564;23.280;2023-06-05T00:22:35;99271.53;;;17.59;90.89
6194;BME280;3130;41.564;23.280;2023-06-05T00:25:02;99267.09;;;17.71;89.91
6194;BME280;3130;41.564;23.280;2023-06-05T00:27:29;99268.50;;;17.54;89.93
6194;BME280;3130;41.564;23.280;2023-06-05T00:29:56;99194.97;;;17.24;89.58
6194;BME280;3130;41.564;23.280;2023-06-05T00:32:23;99258.00;;;17.56;89.72
6194;BME280;3130;41.564;23.280;2023-06-05T00:34:50;99257.00;;;17.47;90.19
6194;BME280;3130;41.564;23.280;2023-06-05T00:37:19;99266.72;;;17.34;91.05
6194;BME280;3130;41.564;23.280;2023-06-05T00:39:47;99249.81;;;17.19;91.91
6194;BME280;3130;41.564;23.280;2023-06-05T00:42:14;99239.16;;;17.02;93.12
6194;BME280;3130;41.564;23.280;2023-06-05T00:44:41;99249.13;;;17.07;93.26
6194;BME280;3130;41.564;23.280;2023-06-05T00:47:08;99228.00;;;16.91;93.47
6194;BME280;3130;41.564;23.280;2023-06-05T00:49:35;99252.09;;;17.02;93.69
6194;BME280;3130;41.564;23.280;2023-06-05T00:52:03;99217.44;;;16.83;94.07
6194;BME280;3130;41.564;23.280;2023-06-05T00:54:32;99245.50;;;16.98;93.91
6194;BME280;3130;41.564;23.280;2023-06-05T00:56:59;99242.81;;;17.00;93.92
6194;BME280;3130;41.564;23.280;2023-06-05T00:59:29;99240.22;;;17.00;93.86
6194;BME280;3130;41.564;23.280;2023-06-05T01:01:58;99244.81;;;16.96;94.42
6194;BME280;3130;41.564;23.280;2023-06-05T01:04:25;99252.19;;;17.12;93.98
6194;BME280;3130;41.564;23.280;2023-06-05T01:06:52;99253.03;;;17.12;93.74
6194;BME280;3130;41.564;23.280;2023-06-05T01:09:19;99250.22;;;17.35;93.44
6194;BME280;3130;41.564;23.280;2023-06-05T01:11:52;99233.41;;;17.30;92.61
6194;BME280;3130;41.564;23.280;2023-06-05T01:14:21;99242.91;;;17.29;93.10
6194;BME280;3130;41.564;23.280;2023-06-05T01:16:49;99252.56;;;17.38;93.25
6194;BME280;3130;41.564;23.280;2023-06-05T01:19:19;99246.16;;;17.42;93.34
6194;BME280;3130;41.564;23.280;2023-06-05T01:21:50;99229.31;;;17.48;93.19
6194;BME280;3130;41.564;23.280;2023-06-05T01:24:18;99230.25;;;17.47;92.63
6194;BME280;3130;41.564;23.280;2023-06-05T01:27:05;99224.63;;;17.42;92.07
6194;BME280;3130;41.564;23.280;2023-06-05T01:29:39;99211.81;;;17.29;91.76
6194;BME280;3130;41.564;23.280;2023-06-05T01:32:11;99186.06;;;16.97;92.15
6194;BME280;3130;41.564;23.280;2023-06-05T01:34:42;99242.28;;;17.17;92.90
6194;BME280;3130;41.564;23.280;2023-06-05T01:37:11;99103.53;;;16.29;93.15
6194;BME280;3130;41.564;23.280;2023-06-05T01:39:42;99235.81;;;17.11;93.28
6194;BME280;3130;41.564;23.280;2023-06-05T01:42:10;99237.50;;;17.01;93.53
6194;BME280;3130;41.564;23.280;2023-06-05T01:44:38;99231.03;;;16.96;94.54
6194;BME280;3130;41.564;23.280;2023-06-05T01:47:06;99221.91;;;16.81;94.91
6194;BME280;3130;41.564;23.280;2023-06-05T01:49:33;99227.94;;;16.70;95.55
6194;BME280;3130;41.564;23.280;2023-06-05T01:52:00;99216.66;;;16.71;96.09
6194;BME280;3130;41.564;23.280;2023-06-05T01:54:27;99189.06;;;16.50;95.75
6194;BME280;3130;41.564;23.280;2023-06-05T01:56:56;99226.25;;;16.80;96.33
6194;BME280;3130;41.564;23.280;2023-06-05T01:59:23;99219.44;;;16.79;96.14
6194;BME280;3130;41.564;23.280;2023-06-05T02:01:50;99203.56;;;16.73;95.67
6194;BME280;3130;41.564;23.280;2023-06-05T02:04:17;99214.16;;;16.81;96.14
6194;BME280;3130;41.564;23.280;2023-06-05T02:06:45;99220.94;;;16.93;95.85
6194;BME280;3130;41.564;23.280;2023-06-05T02:09:12;99220.53;;;17.08;95.21
6194;BME280;3130;41.564;23.280;2023-06-05T02:11:40;99228.53;;;17.25;94.77
6194;BME280;3130;41.564;23.280;2023-06-05T02:14:12;99225.25;;;17.34;93.59
6194;BME280;3130;41.564;23.280;2023-06-05T02:16:41;99224.91;;;17.28;93.21
6194;BME280;3130;41.564;23.280;2023-06-05T02:19:08;99205.34;;;17.04;93.41
6194;BME280;3130;41.564;23.280;2023-06-05T02:21:36;99219.97;;;16.94;94.21
6194;BME280;3130;41.564;23.280;2023-06-05T02:24:04;99196.63;;;16.73;95.36
6194;BME280;3130;41.564;23.280;2023-06-05T02:26:32;99221.53;;;16.85;95.34
6194;BME280;3130;41.564;23.280;2023-06-05T02:28:59;99201.50;;;16.56;95.74
6194;BME280;3130;41.564;23.280;2023-06-05T02:31:28;99179.75;;;16.47;96.18
6194;BME280;3130;41.564;23.280;2023-06-05T02:33:56;99212.44;;;16.59;96.68
6194;BME280;3130;41.564;23.280;2023-06-05T02:36:23;99212.00;;;16.54;96.54
6194;BME280;3130;41.564;23.280;2023-06-05T02:38:51;99185.91;;;16.13;97.71
6194;BME280;3130;41.564;23.280;2023-06-05T02:41:19;99204.47;;;16.29;98.27
6194;BME280;3130;41.564;23.280;2023-06-05T02:43:47;99210.38;;;16.31;98.48
6194;BME280;3130;41.564;23.280;2023-06-05T02:46:14;99196.47;;;16.11;99.34
6194;BME280;3130;41.564;23.280;2023-06-05T02:48:43;99207.06;;;16.08;99.63
6194;BME280;3130;41.564;23.280;2023-06-05T02:51:10;99176.75;;;15.99;99.98
6194;BME280;3130;41.564;23.280;2023-06-05T02:53:37;99203.31;;;16.01;100.00
6194;BME280;3130;41.564;23.280;2023-06-05T02:56:05;99207.53;;;16.13;100.00
6194;BME280;3130;41.564;23.280;2023-06-05T02:58:32;99205.78;;;16.24;99.75
6194;BME280;3130;41.564;23.280;2023-06-05T03:00:59;99211.78;;;16.24;99.66
6194;BME280;3130;41.564;23.280;2023-06-05T03:03:28;99210.28;;;16.33;99.22
6194;BME280;3130;41.564;23.280;2023-06-05T03:05:58;99216.59;;;16.29;99.42
6194;BME280;3130;41.564;23.280;2023-06-05T03:08:30;99210.00;;;16.36;98.88
6194;BME280;3130;41.564;23.280;2023-06-05T03:10:59;99221.53;;;16.43;98.43
6194;BME280;3130;41.564;23.280;2023-06-05T03:13:26;99222.63;;;16.40;98.40
6194;BME280;3130;41.564;23.280;2023-06-05T03:15:53;99221.56;;;16.32;98.37
6194;BME280;3130;41.564;23.280;2023-06-05T03:18:23;99229.31;;;16.43;98.31
6194;BME280;3130;41.564;23.280;2023-06-05T03:20:51;99206.47;;;16.26;97.83
6194;BME280;3130;41.564;23.280;2023-06-05T03:23:22;99233.19;;;16.48;97.75
6194;BME280;3130;41.564;23.280;2023-06-05T03:25:50;99211.66;;;16.26;97.91
6194;BME280;3130;41.564;23.280;2023-06-05T03:28:17;99233.06;;;16.39;98.26
6194;BME280;3130;41.564;23.280;2023-06-05T03:30:44;99237.53;;;16.37;98.10
6194;BME280;3130;41.564;23.280;2023-06-05T03:33:11;99207.19;;;16.28;98.29
6194;BME280;3130;41.564;23.280;2023-06-05T03:35:40;99175.44;;;16.15;97.83
6194;BME280;3130;41.564;23.280;2023-06-05T03:38:08;99221.41;;;16.44;98.29
6194;BME280;3130;41.564;23.280;2023-06-05T03:40:36;99212.00;;;16.43;98.12
6194;BME280;3130;41.564;23.280;2023-06-05T03:43:05;99226.25;;;16.49;98.02
6194;BME280;3130;41.564;23.280;2023-06-05T03:45:32;99221.88;;;16.49;97.59
6194;BME280;3130;41.564;23.280;2023-06-05T03:47:59;99224.41;;;16.71;97.40
6194;BME280;3130;41.564;23.280;2023-06-05T03:50:27;99212.28;;;16.72;96.97
6194;BME280;3130;41.564;23.280;2023-06-05T03:52:56;99227.72;;;16.73;96.32
6194;BME280;3130;41.564;23.280;2023-06-05T03:55:28;99224.53;;;16.70;95.93
6194;BME280;3130;41.564;23.280;2023-06-05T03:58:09;99221.16;;;16.58;96.68
6194;BME280;3130;41.564;23.280;2023-06-05T04:00:39;99220.50;;;16.77;97.00
6194;BME280;3130;41.564;23.280;2023-06-05T04:03:06;99214.00;;;16.82;96.22
6194;BME280;3130;41.564;23.280;2023-06-05T04:05:34;99224.69;;;17.00;95.70
6194;BME280;3130;41.564;23.280;2023-06-05T04:08:01;99211.25;;;16.95;95.48
6194;BME280;3130;41.564;23.280;2023-06-05T04:10:29;99228.22;;;17.30;94.60
6194;BME280;3130;41.564;23.280;2023-06-05T04:12:56;99196.44;;;17.17;93.88
6194;BME280;3130;41.564;23.280;2023-06-05T04:15:25;99235.53;;;17.45;93.45
6194;BME280;3130;41.564;23.280;2023-06-05T04:17:52;99219.34;;;17.53;93.07
6194;BME280;3130;41.564;23.280;2023-06-05T04:20:19;99243.13;;;17.78;92.14
6194;BME280;3130;41.564;23.280;2023-06-05T04:22:46;99240.31;;;17.91;91.99
6194;BME280;3130;41.564;23.280;2023-06-05T04:25:13;99240.50;;;17.99;91.02
6194;BME280;3130;41.564;23.280;2023-06-05T04:27:42;99244.34;;;18.04;90.31
6194;BME280;3130;41.564;23.280;2023-06-05T04:30:11;99213.28;;;17.93;90.38
6194;BME280;3130;41.564;23.280;2023-06-05T04:32:40;99212.81;;;18.09;90.13
6194;BME280;3130;41.564;23.280;2023-06-05T04:35:08;99224.19;;;18.17;90.19
6194;BME280;3130;41.564;23.280;2023-06-05T04:37:36;99235.75;;;18.33;90.08
6194;BME280;3130;41.564;23.280;2023-06-05T04:40:05;99246.16;;;18.43;89.75
6194;BME280;3130;41.564;23.280;2023-06-05T04:42:35;99228.28;;;18.49;89.41
6194;BME280;3130;41.564;23.280;2023-06-05T04:45:04;99240.19;;;18.61;89.50
6194;BME280;3130;41.564;23.280;2023-06-05T04:47:32;99241.84;;;18.72;89.17
6194;BME280;3130;41.564;23.280;2023-06-05T04:50:01;99211.59;;;18.61;89.04
6194;BME280;3130;41.564;23.280;2023-06-05T04:52:30;99241.44;;;18.86;88.87
6194;BME280;3130;41.564;23.280;2023-06-05T04:54:58;99249.13;;;18.97;88.48
6194;BME280;3130;41.564;23.280;2023-06-05T04:57:27;99249.81;;;19.08;87.96
6194;BME280;3130;41.564;23.280;2023-06-05T04:59:54;99250.13;;;19.15;87.84
6194;BME280;3130;41.564;23.280;2023-06-05T05:02:22;99242.72;;;19.20;87.75
6194;BME280;3130;41.564;23.280;2023-06-05T05:04:50;99223.44;;;19.22;87.50
6194;BME280;3130;41.564;23.280;2023-06-05T05:07:18;99242.84;;;19.46;86.87
6194;BME280;3130;41.564;23.280;2023-06-05T05:09:49;99245.31;;;19.48;86.21
6194;BME280;3130;41.564;23.280;2023-06-05T05:12:16;99233.78;;;19.60;85.67
6194;BME280;3130;41.564;23.280;2023-06-05T05:14:45;99230.88;;;19.72;84.95
6194;BME280;3130;41.564;23.280;2023-06-05T05:17:12;99223.91;;;19.73;84.81
6194;BME280;3130;41.564;23.280;2023-06-05T05:19:42;99225.84;;;19.61;85.18
6194;BME280;3130;41.564;23.280;2023-06-05T05:22:09;99225.41;;;19.66;84.94
6194;BME280;3130;41.564;23.280;2023-06-05T05:24:38;99231.84;;;19.62;84.82
6194;BME280;3130;41.564;23.280;2023-06-05T05:27:06;99227.91;;;19.58;85.45
6194;BME280;3130;41.564;23.280;2023-06-05T05:29:33;99224.22;;;19.51;87.69
6194;BME280;3130;41.564;23.280;2023-06-05T05:32:00;99224.91;;;19.53;87.95
6194;BME280;3130;41.564;23.280;2023-06-05T05:34:27;99226.38;;;19.65;87.82
6194;BME280;3130;41.564;23.280;2023-06-05T05:36:54;99234.88;;;19.67;87.43
6194;BME280;3130;41.564;23.280;2023-06-05T05:39:22;99224.47;;;19.57;87.26
6194;BME280;3130;41.564;23.280;2023-06-05T05:41:50;99213.84;;;19.41;87.00
6194;BME280;3130;41.564;23.280;2023-06-05T05:44:17;99234.06;;;19.66;86.22
6194;BME280;3130;41.564;23.280;2023-06-05T05:46:45;99233.34;;;19.74;86.04
6194;BME280;3130;41.564;23.280;2023-06-05T05:49:13;99228.69;;;19.77;85.49
6194;BME280;3130;41.564;23.280;2023-06-05T05:51:40;99122.44;;;19.18;84.90
6194;BME280;3130;41.564;23.280;2023-06-05T05:54:07;99244.53;;;19.93;85.30
6194;BME280;3130;41.564;23.280;2023-06-05T05:56:34;99237.50;;;20.03;85.01
6194;BME280;3130;41.564;23.280;2023-06-05T05:59:03;99242.81;;;20.21;84.39
6194;BME280;3130;41.564;23.280;2023-06-05T06:01:30;99235.56;;;20.41;84.10
6194;BME280;3130;41.564;23.280;2023-06-05T06:03:58;99230.25;;;20.60;82.97
6194;BME280;3130;41.564;23.280;2023-06-05T06:06:25;99208.56;;;20.60;82.35
6194;BME280;3130;41.564;23.280;2023-06-05T06:08:52;99238.56;;;20.91;81.18
6194;BME280;3130;41.564;23.280;2023-06-05T06:11:19;99228.22;;;20.99;79.76
6194;BME280;3130;41.564;23.280;2023-06-05T06:13:46;99241.56;;;21.13;78.97
6194;BME280;3130;41.564;23.280;2023-06-05T06:16:15;99234.84;;;21.11;77.20
6194;BME280;3130;41.564;23.280;2023-06-05T06:18:43;99179.84;;;20.69;76.32
6194;BME280;3130;41.564;23.280;2023-06-05T06:21:10;99238.13;;;21.30;76.00
6194;BME280;3130;41.564;23.280;2023-06-05T06:23:37;99234.47;;;21.40;75.72
6194;BME280;3130;41.564;23.280;2023-06-05T06:26:04;99236.47;;;21.64;75.39
6194;BME280;3130;41.564;23.280;2023-06-05T06:28:32;99237.81;;;21.68;73.85
6194;BME280;3130;41.564;23.280;2023-06-05T06:30:59;99235.13;;;21.85;73.68
6194;BME280;3130;41.564;23.280;2023-06-05T06:33:27;99214.44;;;21.92;73.40
6194;BME280;3130;41.564;23.280;2023-06-05T06:35:54;99241.03;;;22.21;72.84
6194;BME280;3130;41.564;23.280;2023-06-05T06:38:23;99235.63;;;22.47;72.27
6194;BME280;3130;41.564;23.280;2023-06-05T06:40:55;99232.59;;;22.76;70.02
6194;BME280;3130;41.564;23.280;2023-06-05T06:43:23;99181.56;;;22.56;69.64
6194;BME280;3130;41.564;23.280;2023-06-05T06:45:50;99219.72;;;22.90;69.43
6194;BME280;3130;41.564;23.280;2023-06-05T06:48:17;99221.50;;;23.06;68.45
6194;BME280;3130;41.564;23.280;2023-06-05T06:50:47;99237.28;;;23.30;68.25
6194;BME280;3130;41.564;23.280;2023-06-05T06:53:14;99225.81;;;23.31;68.23
6194;BME280;3130;41.564;23.280;2023-06-05T06:55:41;99225.16;;;23.52;67.97
6194;BME280;3130;41.564;23.280;2023-06-05T06:58:08;99210.41;;;23.59;67.33
6194;BME280;3130;41.564;23.280;2023-06-05T07:00:35;99170.66;;;23.48;66.77
6194;BME280;3130;41.564;23.280;2023-06-05T07:03:02;99219.72;;;23.86;66.26
6194;BME280;3130;41.564;23.280;2023-06-05T07:05:30;99203.47;;;23.90;65.38
6194;BME280;3130;41.564;23.280;2023-06-05T07:07:58;99219.50;;;24.03;65.48
6194;BME280;3130;41.564;23.280;2023-06-05T07:10:27;99204.97;;;23.93;65.79
6194;BME280;3130;41.564;23.280;2023-06-05T07:12:54;99199.72;;;23.93;65.02
6194;BME280;3130;41.564;23.280;2023-06-05T07:15:21;99214.94;;;24.05;65.19
6194;BME280;3130;41.564;23.280;2023-06-05T07:17:48;99224.84;;;24.18;65.13
6194;BME280;3130;41.564;23.280;2023-06-05T07:20:15;99228.72;;;24.38;64.22
6194;BME280;3130;41.564;23.280;2023-06-05T07:22:44;99222.97;;;24.42;64.10
6194;BME280;3130;41.564;23.280;2023-06-05T07:25:13;99226.91;;;24.38;63.90
6194;BME280;3130;41.564;23.280;2023-06-05T07:27:43;99226.88;;;24.54;64.37
6194;BME280;3130;41.564;23.280;2023-06-05T07:30:11;99223.81;;;24.73;63.88
6194;BME280;3130;41.564;23.280;2023-06-05T07:32:39;99218.72;;;24.71;63.50
6194;BME280;3130;41.564;23.280;2023-06-05T07:35:08;99231.69;;;24.95;63.12
6194;BME280;3130;41.564;23.280;2023-06-05T07:37:35;99218.16;;;25.06;63.27
6194;BME280;3130;41.564;23.280;2023-06-05T07:40:03;99211.91;;;25.07;62.56
6194;BME280;3130;41.564;23.280;2023-06-05T07:42:32;99227.81;;;25.14;62.48
6194;BME280;3130;41.564;23.280;2023-06-05T07:45:00;99228.88;;;25.27;62.64
6194;BME280;3130;41.564;23.280;2023-06-05T07:47:28;99235.81;;;25.57;61.06
6194;BME280;3130;41.564;23.280;2023-06-05T07:49:58;99237.03;;;25.69;60.96
6194;BME280;3130;41.564;23.280;2023-06-05T07:52:26;99239.66;;;26.06;58.19
6194;BME280;3130;41.564;23.280;2023-06-05T07:54:54;99244.56;;;26.73;56.71
6194;BME280;3130;41.564;23.280;2023-06-05T07:57:22;99145.47;;;26.65;54.21
6194;BME280;3130;41.564;23.280;2023-06-05T07:59:56;99176.94;;;27.63;52.15
6194;BME280;3130;41.564;23.280;2023-06-05T08:02:26;99197.06;;;29.89;45.33
6194;BME280;3130;41.564;23.280;2023-06-05T08:04:53;99260.53;;;32.55;38.96
6194;BME280;3130;41.564;23.280;2023-06-05T08:07:20;99169.41;;;33.25;35.38
6194;BME280;3130;41.564;23.280;2023-06-05T08:09:47;99168.28;;;32.15;36.71
6194;BME280;3130;41.564;23.280;2023-06-05T08:12:14;99263.97;;;31.53;39.30
6194;BME280;3130;41.564;23.280;2023-06-05T08:14:41;99231.06;;;30.05;42.58
6194;BME280;3130;41.564;23.280;2023-06-05T08:17:10;99241.56;;;28.48;48.49
6194;BME280;3130;41.564;23.280;2023-06-05T08:19:37;99241.47;;;27.95;50.42
6194;BME280;3130;41.564;23.280;2023-06-05T08:22:04;99245.66;;;27.83;51.64
6194;BME280;3130;41.564;23.280;2023-06-05T08:24:31;99216.72;;;27.41;52.51
6194;BME280;3130;41.564;23.280;2023-06-05T08:26:58;99243.84;;;26.64;54.37
6194;BME280;3130;41.564;23.280;2023-06-05T08:29:26;99239.88;;;26.68;54.83
6194;BME280;3130;41.564;23.280;2023-06-05T08:31:54;99241.97;;;26.59;54.30
6194;BME280;3130;41.564;23.280;2023-06-05T08:34:22;99236.53;;;26.95;53.64
6194;BME280;3130;41.564;23.280;2023-06-05T08:36:51;99221.72;;;26.94;52.68
6194;BME280;3130;41.564;23.280;2023-06-05T08:39:18;99227.38;;;26.91;54.96
6194;BME280;3130;41.564;23.280;2023-06-05T08:41:49;99223.38;;;26.95;53.35
6194;BME280;3130;41.564;23.280;2023-06-05T08:44:17;99192.31;;;26.91;52.88
6194;BME280;3130;41.564;23.280;2023-06-05T08:46:44;99204.66;;;27.05;51.73
6194;BME280;3130;41.564;23.280;2023-06-05T08:49:14;99227.31;;;27.27;50.62
6194;BME280;3130;41.564;23.280;2023-06-05T08:51:50;99229.53;;;27.23;49.58
6194;BME280;3130;41.564;23.280;2023-06-05T08:54:19;99144.75;;;26.71;49.66
6194;BME280;3130;41.564;23.280;2023-06-05T08:56:47;99202.97;;;27.25;50.18
6194;BME280;3130;41.564;23.280;2023-06-05T08:59:15;99206.94;;;27.35;49.17
6194;BME280;3130;41.564;23.280;2023-06-05T09:01:46;99218.16;;;27.44;48.66
6194;BME280;3130;41.564;23.280;2023-06-05T09:04:13;99172.31;;;27.38;47.61
6194;BME280;3130;41.564;23.280;2023-06-05T09:06:46;99200.41;;;27.59;46.95
6194;BME280;3130;41.564;23.280;2023-06-05T09:09:14;99210.16;;;27.58;47.35
6194;BME280;3130;41.564;23.280;2023-06-05T09:11:42;99219.59;;;27.67;46.58
6194;BME280;3130;41.564;23.280;2023-06-05T09:14:09;99215.94;;;27.68;47.58
6194;BME280;3130;41.564;23.280;2023-06-05T09:16:38;99216.47;;;27.63;48.17
6194;BME280;3130;41.564;23.280;2023-06-05T09:19:06;99218.69;;;27.81;46.70
6194;BME280;3130;41.564;23.280;2023-06-05T09:21:33;99220.28;;;27.55;46.00
6194;BME280;3130;41.564;23.280;2023-06-05T09:24:13;99221.28;;;27.54;47.20
6194;BME280;3130;41.564;23.280;2023-06-05T09:27:05;99212.53;;;27.53;47.72
6194;BME280;3130;41.564;23.280;2023-06-05T09:29:34;99214.09;;;27.20;49.96
6194;BME280;3130;41.564;23.280;2023-06-05T09:32:03;99163.53;;;27.04;49.14
6194;BME280;3130;41.564;23.280;2023-06-05T09:34:33;99209.53;;;27.56;48.68
6194;BME280;3130;41.564;23.280;2023-06-05T09:37:03;99219.22;;;27.76;46.46
6194;BME280;3130;41.564;23.280;2023-06-05T09:39:36;99206.13;;;27.83;45.83
6194;BME280;3130;41.564;23.280;2023-06-05T09:42:04;99221.00;;;27.97;45.95
6194;BME280;3130;41.564;23.280;2023-06-05T09:44:32;99203.81;;;28.07;44.72
6194;BME280;3130;41.564;23.280;2023-06-05T09:47:03;99209.53;;;28.17;44.36
6194;BME280;3130;41.564;23.280;2023-06-05T09:49:45;99200.81;;;28.17;44.83
6194;BME280;3130;41.564;23.280;2023-06-05T09:52:13;99182.53;;;28.15;45.17
6194;BME280;3130;41.564;23.280;2023-06-05T09:54:43;99202.66;;;28.23;44.93
6194;BME280;3130;41.564;23.280;2023-06-05T09:57:12;99194.81;;;28.29;44.63
6194;BME280;3130;41.564;23.280;2023-06-05T09:59:45;99086.00;;;27.74;45.55
6194;BME280;3130;41.564;23.280;2023-06-05T10:02:12;99185.72;;;28.38;44.28
6194;BME280;3130;41.564;23.280;2023-06-05T10:04:45;99190.41;;;28.43;45.20
6194;BME280;3130;41.564;23.280;2023-06-05T10:07:13;99117.41;;;28.09;44.72
6194;BME280;3130;41.564;23.280;2023-06-05T10:09:44;99155.91;;;28.04;44.61
6194;BME280;3130;41.564;23.280;2023-06-05T10:12:11;99139.00;;;27.92;45.19
6194;BME280;3130;41.564;23.280;2023-06-05T10:14:41;99174.81;;;28.07;44.98
6194;BME280;3130;41.564;23.280;2023-06-05T10:17:11;99153.34;;;28.23;44.53
6194;BME280;3130;41.564;23.280;2023-06-05T10:19:41;99111.63;;;27.93;43.36
6194;BME280;3130;41.564;23.280;2023-06-05T10:22:09;99092.09;;;27.74;44.27
6194;BME280;3130;41.564;23.280;2023-06-05T10:24:41;99170.66;;;28.32;43.34
6194;BME280;3130;41.564;23.280;2023-06-05T10:27:39;99156.72;;;28.45;43.40
6194;BME280;3130;41.564;23.280;2023-06-05T10:33:07;99135.16;;;28.28;45.77
6194;BME280;3130;41.564;23.280;2023-06-05T10:35:48;99041.78;;;27.76;43.94
6194;BME280;3130;41.564;23.280;2023-06-05T10:38:20;99164.19;;;28.35;43.65
6194;BME280;3130;41.564;23.280;2023-06-05T10:40:52;99164.59;;;28.32;43.54
6194;BME280;3130;41.564;23.280;2023-06-05T10:43:30;99157.50;;;28.39;44.04
6194;BME280;3130;41.564;23.280;2023-06-05T10:46:02;99078.91;;;28.28;41.95
6194;BME280;3130;41.564;23.280;2023-06-05T10:49:07;99054.59;;;27.85;42.46
6194;BME280;3130;41.564;23.280;2023-06-05T10:51:35;99150.69;;;28.76;44.72
6194;BME280;3130;41.564;23.280;2023-06-05T10:54:04;99154.59;;;28.93;43.43
6194;BME280;3130;41.564;23.280;2023-06-05T10:56:54;99146.63;;;28.80;42.90
6194;BME280;3130;41.564;23.280;2023-06-05T10:59:25;99140.72;;;28.78;41.29
6194;BME280;3130;41.564;23.280;2023-06-05T11:02:25;99154.00;;;29.04;43.12
6194;BME280;3130;41.564;23.280;2023-06-05T11:05:08;99146.59;;;28.55;44.66
6194;BME280;3130;41.564;23.280;2023-06-05T11:07:37;99136.38;;;27.92;47.31
6194;BME280;3130;41.564;23.280;2023-06-05T11:10:15;99144.66;;;27.28;49.24
6194;BME280;3130;41.564;23.280;2023-06-05T11:12:59;99137.69;;;27.68;49.59
6194;BME280;3130;41.564;23.280;2023-06-05T11:15:41;99133.28;;;27.82;47.36
6194;BME280;3130;41.564;23.280;2023-06-05T11:18:28;99139.41;;;27.89;46.21
6194;BME280;3130;41.564;23.280;2023-06-05T11:20:55;99141.38;;;27.80;46.62
6194;BME280;3130;41.564;23.280;2023-06-05T11:23:23;99137.31;;;28.18;46.30
6194;BME280;3130;41.564;23.280;2023-06-05T11:25:54;99137.47;;;28.57;45.23
6194;BME280;3130;41.564;23.280;2023-06-05T11:28:42;99139.09;;;28.71;43.08
6194;BME280;3130;41.564;23.280;2023-06-05T11:31:11;99111.69;;;28.66;43.43
6194;BME280;3130;41.564;23.280;2023-06-05T11:33:38;99143.75;;;28.63;43.77
6194;BME280;3130;41.564;23.280;2023-06-05T11:36:06;99139.81;;;28.26;44.30
6194;BME280;3130;41.564;23.280;2023-06-05T11:38:38;99151.00;;;28.28;44.77
6194;BME280;3130;41.564;23.280;2023-06-05T11:41:06;99136.69;;;28.16;44.59
6194;BME280;3130;41.564;23.280;2023-06-05T11:43:41;99135.25;;;28.14;43.09
6194;BME280;3130;41.564;23.280;2023-06-05T11:46:09;99124.88;;;28.06;44.26
6194;BME280;3130;41.564;23.280;2023-06-05T11:48:44;99127.31;;;28.07;43.94
6194;BME280;3130;41.564;23.280;2023-06-05T11:51:12;99110.66;;;28.07;44.84
6194;BME280;3130;41.564;23.280;2023-06-05T11:53:45;99118.78;;;28.05;45.19
6194;BME280;3130;41.564;23.280;2023-06-05T11:56:14;99065.00;;;27.93;45.35
6194;BME280;3130;41.564;23.280;2023-06-05T11:58:43;99105.25;;;28.21;44.38
6194;BME280;3130;41.564;23.280;2023-06-05T12:01:13;99104.13;;;28.37;44.62
6194;BME280;3130;41.564;23.280;2023-06-05T12:03:46;99041.72;;;28.23;43.17
6194;BME280;3130;41.564;23.280;2023-06-05T12:06:13;99106.78;;;28.63;40.99
6194;BME280;3130;41.564;23.280;2023-06-05T12:08:41;99097.47;;;28.60;42.21
6194;BME280;3130;41.564;23.280;2023-06-05T12:11:22;99078.38;;;28.52;42.48
6194;BME280;3130;41.564;23.280;2023-06-05T12:13:50;99009.69;;;28.32;41.21
6194;BME280;3130;41.564;23.280;2023-06-05T12:16:19;99085.91;;;28.87;41.50
6194;BME280;3130;41.564;23.280;2023-06-05T12:18:50;98999.38;;;28.50;41.78
6194;BME280;3130;41.564;23.280;2023-06-05T12:21:21;98987.19;;;28.43;41.90
6194;BME280;3130;41.564;23.280;2023-06-05T12:23:48;99065.81;;;28.92;41.43
6194;BME280;3130;41.564;23.280;2023-06-05T12:26:16;99079.81;;;28.80;41.61
6194;BME280;3130;41.564;23.280;2023-06-05T12:28:45;99090.16;;;28.62;42.43
6194;BME280;3130;41.564;23.280;2023-06-05T12:31:32;99078.81;;;28.81;41.92
6194;BME280;3130;41.564;23.280;2023-06-05T12:34:01;99078.63;;;28.82;41.90
6194;BME280;3130;41.564;23.280;2023-06-05T12:36:28;99062.16;;;28.87;42.22
6194;BME280;3130;41.564;23.280;2023-06-05T12:39:02;98951.66;;;28.32;40.59
6194;BME280;3130;41.564;23.280;2023-06-05T12:41:31;99000.59;;;28.41;43.19
6194;BME280;3130;41.564;23.280;2023-06-05T12:43:59;99010.13;;;28.62;44.36
6194;BME280;3130;41.564;23.280;2023-06-05T12:46:26;99064.56;;;28.82;45.25
6194;BME280;3130;41.564;23.280;2023-06-05T12:48:53;99032.25;;;28.48;46.02
6194;BME280;3130;41.564;23.280;2023-06-05T12:51:22;99055.66;;;28.83;46.69
6194;BME280;3130;41.564;23.280;2023-06-05T12:53:49;99027.41;;;28.77;45.82
6194;BME280;3130;41.564;23.280;2023-06-05T12:56:16;98960.41;;;28.39;46.21
6194;BME280;3130;41.564;23.280;2023-06-05T12:58:43;99051.16;;;29.03;46.10
6194;BME280;3130;41.564;23.280;2023-06-05T13:01:10;99042.81;;;29.19;45.80
6194;BME280;3130;41.564;23.280;2023-06-05T13:03:37;99050.56;;;29.20;45.39
6194;BME280;3130;41.564;23.280;2023-06-05T13:06:04;99050.56;;;28.94;42.64
6194;BME280;3130;41.564;23.280;2023-06-05T13:08:33;99041.41;;;28.90;42.14
6194;BME280;3130;41.564;23.280;2023-06-05T13:11:00;99035.13;;;28.72;42.05
6194;BME280;3130;41.564;23.280;2023-06-05T13:13:27;99025.75;;;28.57;41.51
6194;BME280;3130;41.564;23.280;2023-06-05T13:15:55;99055.22;;;28.79;41.46
6194;BME280;3130;41.564;23.280;2023-06-05T13:18:22;99047.91;;;28.75;41.76
6194;BME280;3130;41.564;23.280;2023-06-05T13:20:49;99048.53;;;28.77;42.47
6194;BME280;3130;41.564;23.280;2023-06-05T13:23:16;99044.28;;;28.89;41.86